Data for 03/17/2008

Time Sea-Level Adjusted Pressure Absolute Pressure Temperature Relative Humidity Dew Point   
(mb) (inHg) (mb) (inHg) (C) (F) (%) (C) (F)
00:05 1017 30.03 846 24.98 -2.5 27.5 64 -8.4 16.9
00:10 1017 30.03 847 25.01 -2.4 27.6 63 -8.5 16.7
00:15 1017 30.03 847 25.01 -2.7 27.2 65 -8.3 17
00:20 1017 30.03 847 25.01 -2.7 27.1 66 -8.3 17.1
00:25 1017 30.03 847 25.01 -2.9 26.9 67 -8.2 17.2
00:30 1017 30.03 847 25.01 -3.3 26 69 -8.2 17.3
00:35 1017 30.03 847 25.01 -3.4 25.9 69 -8.3 17
00:40 1017 30.03 847 25.01 -3.3 26.1 69 -8.3 17.1
00:45 1017 30.03 847 25.01 -3.2 26.3 68 -8.3 17.1
00:50 1017 30.03 847 25.01 -3.1 26.4 67 -8.4 17
00:55 1017 30.03 847 25.01 -3.2 26.3 67 -8.5 16.6
01:00 1017 30.03 847 25.01 -3 26.5 65 -8.8 16.2
01:05 1017 30.03 846 24.98 -2.8 27 62 -9 15.8
01:10 1017 30.03 846 24.98 -2.5 27.5 61 -9 15.8
01:15 1017 30.03 846 24.98 -2.5 27.5 61 -9 15.8
01:20 1017 30.03 846 24.98 -2.7 27.2 61 -9.2 15.5
01:25 1017 30.03 846 24.98 -2.9 26.7 63 -9.1 15.7
01:30 1017 30.03 846 24.98 -3.1 26.4 63 -9.2 15.4
01:35 1017 30.03 846 24.98 -3 26.6 62 -9.2 15.4
01:40 1017 30.03 846 24.98 -3 26.6 62 -9.3 15.3
01:45 1017 30.03 846 24.98 -3 26.7 62 -9.3 15.3
01:50 1017 30.03 846 24.98 -2.8 26.9 62 -9.2 15.4
01:55 1017 30.03 846 24.98 -2.7 27.2 61 -9.3 15.3
02:00 1017 30.03 846 24.98 -2.6 27.3 60 -9.3 15.3
02:05 1017 30.03 846 24.98 -2.6 27.4 59 -9.4 15.1
02:10 1017 30.03 846 24.98 -2.6 27.4 60 -9.3 15.2
02:15 1017 30.03 846 24.98 -2.6 27.2 60 -9.3 15.2
02:20 1017 30.03 846 24.98 -2.9 26.8 61 -9.3 15.2
02:25 1017 30.03 846 24.98 -3.3 26.2 63 -9.3 15.3
02:30 1017 30.03 846 24.98 -3.6 25.5 65 -9.4 15.1
02:35 1017 30.03 846 24.98 -3.9 25 65 -9.4 15
02:40 1017 30.03 846 24.98 -4.1 24.6 66 -9.5 14.9
02:45 1017 30.03 846 24.98 -4.1 24.6 66 -9.5 15
02:50 1017 30.03 846 24.98 -4.1 24.6 67 -9.3 15.2
02:55 1017 30.03 846 24.98 -4 24.9 66 -9.5 14.9
03:00 1017 30.03 846 24.98 -3.8 25.1 64 -9.6 14.7
03:05 1017 30.03 846 24.98 -4 24.8 65 -9.7 14.5
03:10 1016 30 846 24.98 -4 24.8 64 -9.8 14.3
03:15 1016 30 845 24.95 -3.9 25 64 -9.8 14.3
03:20 1016 30 845 24.95 -4.1 24.7 64 -9.9 14.1
03:25 1016 30 845 24.95 -4.3 24.2 65 -9.9 14.1
03:30 1016 30 845 24.95 -4.2 24.4 65 -9.9 14.1
03:35 1016 30 845 24.95 -4.4 24.1 65 -10 14
03:40 1016 30 845 24.95 -4.5 23.9 65 -10.1 13.8
03:45 1016 30 845 24.95 -4.7 23.5 66 -10.2 13.6
03:50 1016 30 845 24.95 -4.8 23.3 66 -10.2 13.6
03:55 1016 30 845 24.95 -4.9 23.3 66 -10.2 13.7
04:00 1016 30 845 24.95 -4.8 23.4 66 -10.1 13.8
04:05 1016 30 845 24.95 -4.7 23.6 66 -10.1 13.9
04:10 1015 29.97 845 24.95 -4.6 23.7 66 -10 14
04:15 1015 29.97 845 24.95 -4.5 23.9 66 -9.9 14.1
04:20 1015 29.97 845 24.95 -4.7 23.6 67 -10 14
04:25 1015 29.97 845 24.95 -4.9 23.1 67 -10.1 13.8
04:30 1015 29.97 845 24.95 -5.1 22.8 68 -10.1 13.8
04:35 1015 29.97 844 24.92 -5.4 22.4 69 -10.2 13.7
04:40 1015 29.97 844 24.92 -5.5 22.1 70 -10.2 13.7
04:45 1015 29.97 844 24.92 -5.5 22 69 -10.3 13.5
04:50 1015 29.97 844 24.92 -5.3 22.4 70 -10 13.9
04:55 1015 29.97 844 24.92 -5.2 22.7 69 -10.1 13.8
05:00 1015 29.97 844 24.92 -5.1 22.9 69 -9.9 14.2
05:05 1015 29.97 844 24.92 -5 22.9 69 -9.9 14.3
05:10 1015 29.97 844 24.92 -4.9 23.1 68 -9.9 14.1
05:15 1015 29.97 844 24.92 -5 23 68 -10 14
05:20 1015 29.97 844 24.92 -5 23 68 -10.1 13.9
05:25 1015 29.97 844 24.92 -5.1 22.8 68 -10.1 13.8
05:30 1015 29.97 844 24.92 -5.1 22.8 68 -10.1 13.8
05:35 1015 29.97 844 24.92 -5 22.9 68 -10 14
05:40 1015 29.97 844 24.92 -5.1 22.9 69 -9.9 14.2
05:45 1015 29.97 844 24.92 -5.1 22.9 70 -9.8 14.4
05:50 1015 29.97 844 24.92 -4.9 23.1 69 -9.9 14.3
05:55 1015 29.97 844 24.92 -4.8 23.3 68 -9.8 14.4
06:00 1015 29.97 844 24.92 -4.7 23.5 68 -9.7 14.6
06:05 1015 29.97 844 24.92 -4.9 23.2 69 -9.8 14.4
06:10 1015 29.97 844 24.92 -5 22.9 69 -9.8 14.3
06:15 1015 29.97 844 24.92 -5 23 69 -9.9 14.2
06:20 1015 29.97 844 24.92 -5.2 22.7 69 -10 14
06:25 1015 29.97 844 24.92 -5 22.9 68 -10.1 13.9
06:30 1015 29.97 844 24.92 -5 22.9 68 -10 14
06:35 1015 29.97 844 24.92 -5.2 22.6 69 -10 14
06:40 1015 29.97 844 24.92 -5.4 22.3 70 -10.1 13.8
06:45 1015 29.97 844 24.92 -5.4 22.2 70 -10.1 13.9
06:50 1015 29.97 844 24.92 -5.4 22.3 71 -9.8 14.3
06:55 1015 29.97 844 24.92 -5.3 22.4 72 -9.7 14.6
07:00 1015 29.97 844 24.92 -5.1 22.8 71 -9.5 14.9
07:05 1015 29.97 844 24.92 -5.1 22.9 71 -9.5 15
07:10 1015 29.97 844 24.92 -4.9 23.1 70 -9.6 14.7
07:15 1015 29.97 844 24.92 -4.9 23.2 69 -9.7 14.5
07:20 1015 29.97 844 24.92 -4.9 23.3 69 -9.6 14.7
07:25 1015 29.97 844 24.92 -4.8 23.3 70 -9.5 14.9
07:30 1015 29.97 844 24.92 -4.8 23.4 70 -9.4 15.1
07:35 1015 29.97 844 24.92 -4.7 23.5 70 -9.4 15.1
07:40 1015 29.97 844 24.92 -4.7 23.6 69 -9.5 15
07:45 1015 29.97 844 24.92 -4.7 23.5 69 -9.5 14.8
07:50 1015 29.97 844 24.92 -4.5 23.9 69 -9.4 15
07:55 1015 29.97 844 24.92 -4.4 24.1 68 -9.4 15.1
08:00 1015 29.97 844 24.92 -4.4 24.2 68 -9.4 15.1
08:05 1015 29.97 844 24.92 -4.2 24.4 67 -9.4 15
08:10 1015 29.97 844 24.92 -4.1 24.6 66 -9.5 15
08:15 1015 29.97 845 24.95 -4 24.8 66 -9.5 15
08:20 1015 29.97 845 24.95 -3.7 25.3 65 -9.3 15.2
08:25 1015 29.97 845 24.95 -3.5 25.7 65 -9.1 15.6
08:30 1015 29.97 845 24.95 -3.2 26.2 65 -8.9 16
08:35 1015 29.97 845 24.95 -3.1 26.4 65 -8.7 16.3
08:40 1015 29.97 845 24.95 -3 26.7 65 -8.7 16.4
08:45 1015 29.97 845 24.95 -2.9 26.8 65 -8.6 16.5
08:50 1015 29.97 845 24.95 -2.8 26.9 65 -8.5 16.7
08:55 1015 29.97 845 24.95 -2.7 27.1 64 -8.7 16.4
09:00 1016 30 845 24.95 -2.7 27.2 63 -8.8 16.2
09:05 1015 29.97 845 24.95 -2.6 27.3 63 -8.7 16.3
09:10 1015 29.97 845 24.95 -2.6 27.3 63 -8.8 16.2
09:15 1015 29.97 845 24.95 -2.5 27.5 62 -8.8 16.1
09:20 1015 29.97 845 24.95 -2.4 27.7 61 -8.8 16.1
09:25 1015 29.97 845 24.95 -2.3 27.8 61 -8.9 16
09:30 1015 29.97 845 24.95 -2.1 28.3 60 -8.9 16
09:35 1015 29.97 845 24.95 -2 28.4 60 -8.8 16.2
09:40 1015 29.97 845 24.95 -1.9 28.5 59 -8.9 16
09:45 1015 29.97 845 24.95 -1.8 28.7 59 -8.9 16
09:50 1015 29.97 845 24.95 -1.7 29 59 -8.7 16.3
09:55 1015 29.97 845 24.95 -1.4 29.5 57 -8.8 16.2
10:00 1015 29.97 845 24.95 -1.2 29.8 56 -9 15.8
10:05 1016 30 845 24.95 -1.3 29.7 56 -8.8 16.1
10:10 1016 30 845 24.95 -1.1 30 56 -8.8 16.2
10:15 1016 30 845 24.95 -0.8 30.6 56 -8.6 16.6
10:20 1016 30 845 24.95 -0.6 31 55 -8.5 16.7
10:25 1016 30 845 24.95 -0.4 31.3 55 -8.3 17
10:30 1016 30 845 24.95 -0.2 31.7 54 -8.3 17
10:35 1016 30 845 24.95 -0.1 31.9 55 -8 17.5
10:40 1016 30 845 24.95 -0 31.9 56 -7.8 18
10:45 1016 30 845 24.95 -0 32 56 -7.8 18
10:50 1016 30 845 24.95 -0.1 31.8 56 -7.8 17.9
10:55 1015 29.97 845 24.95 0.1 32.2 56 -7.7 18.1
11:00 1016 30 845 24.95 0.2 32.3 55 -7.8 18
11:05 1015 29.97 845 24.95 -0 32 55 -8 17.6
11:10 1015 29.97 845 24.95 0.2 32.4 54 -7.9 17.7
11:15 1015 29.97 845 24.95 0.6 33.1 53 -7.9 17.8
11:20 1015 29.97 845 24.95 1 33.9 52 -7.8 17.9
11:25 1015 29.97 845 24.95 1.8 35.2 50 -7.7 18.2
11:30 1015 29.97 844 24.92 2.3 36.2 47 -7.8 18
11:35 1015 29.97 844 24.92 2.8 37.1 45 -8 17.5
11:40 1015 29.97 844 24.92 2.4 36.4 46 -8 17.5
11:45 1015 29.97 844 24.92 2.3 36.1 46 -8.3 17.1
11:50 1015 29.97 844 24.92 2.4 36.3 46 -8.2 17.3
11:55 1015 29.97 844 24.92 2.2 35.9 45 -8.6 16.5
12:00 1015 29.97 844 24.92 2.5 36.6 44 -8.4 16.9
12:05 1015 29.97 844 24.92 3.2 37.7 44 -8 17.5
12:10 1015 29.97 844 24.92 3.8 38.8 40 -8.5 16.7
12:15 1015 29.97 844 24.92 3.4 38 42 -8.4 16.9
12:20 1015 29.97 844 24.92 3.8 38.9 41 -8.1 17.4
12:25 1015 29.97 844 24.92 4.2 39.6 41 -8 17.6
12:30 1015 29.97 844 24.92 3.8 38.9 43 -7.8 18
12:35 1015 29.97 844 24.92 3.5 38.3 43 -8 17.6
12:40 1015 29.97 844 24.92 4.3 39.7 36 -9.5 14.9
12:45 1015 29.97 844 24.92 4.9 40.8 34 -9.7 14.6
12:50 1015 29.97 844 24.92 5.3 41.5 33 -9.6 14.7
12:55 1015 29.97 844 24.92 5.3 41.5 33 -9.7 14.5
13:00 1015 29.97 844 24.92 5.1 41.2 33 -9.8 14.4
13:05 1015 29.97 844 24.92 5.5 41.9 33 -9.5 14.8
13:10 1015 29.97 844 24.92 5 41.1 33 -9.8 14.3
13:15 1015 29.97 844 24.92 4.5 40.2 34 -10 14
13:20 1014 29.94 844 24.92 4.6 40.2 34 -10 14
13:25 1015 29.97 844 24.92 5 41.1 33 -9.8 14.3
13:30 1015 29.97 844 24.92 4.9 40.9 34 -9.8 14.4
13:35 1015 29.97 844 24.92 5 40.9 33 -9.8 14.3
13:40 1015 29.97 844 24.92 5 41 33 -9.9 14.2
13:45 1014 29.94 844 24.92 4.7 40.5 34 -9.9 14.2
13:50 1015 29.97 844 24.92 4.5 40 35 -9.8 14.4
13:55 1014 29.94 844 24.92 4.6 40.2 34 -10.1 13.9
14:00 1014 29.94 844 24.92 4.3 39.7 34 -10.1 13.9
14:05 1014 29.94 844 24.92 4.8 40.6 34 -9.8 14.4
14:10 1014 29.94 844 24.92 4.8 40.6 34 -9.9 14.2
14:15 1014 29.94 843 24.89 5.1 41.3 34 -9.6 14.8
14:20 1014 29.94 843 24.89 5.6 42.1 33 -9.3 15.2
14:25 1014 29.94 843 24.89 5.7 42.3 33 -9.2 15.5
14:30 1014 29.94 843 24.89 6.3 43.3 32 -9.4 15
14:35 1014 29.94 843 24.89 6.1 43 32 -9.2 15.4
14:40 1014 29.94 843 24.89 5.9 42.7 32 -9.4 15.1
14:45 1014 29.94 843 24.89 6 42.8 32 -9.6 14.8
14:50 1014 29.94 843 24.89 6.1 43 32 -9.3 15.2
14:55 1014 29.94 843 24.89 6.2 43.2 33 -9 15.8
15:00 1014 29.94 843 24.89 6.1 43 32 -9.4 15.1
15:05 1014 29.94 843 24.89 6 42.8 33 -9.1 15.7
15:10 1014 29.94 843 24.89 6 42.8 33 -9.2 15.5
15:15 1014 29.94 843 24.89 5.9 42.6 33 -9.1 15.7
15:20 1014 29.94 843 24.89 5.8 42.4 33 -9.3 15.3
15:25 1014 29.94 843 24.89 6.4 43.5 33 -8.9 16
15:30 1014 29.94 843 24.89 6.6 44 31 -9.5 14.9
15:35 1014 29.94 843 24.89 6.4 43.4 32 -9.2 15.4
15:40 1013 29.91 843 24.89 6.2 43.2 32 -9.1 15.6
15:45 1013 29.91 843 24.89 6.3 43.3 32 -9.4 15.1
15:50 1013 29.91 843 24.89 6.1 43 32 -9.2 15.4
15:55 1013 29.91 843 24.89 6 42.7 33 -9.2 15.4
16:00 1013 29.91 843 24.89 6.4 43.5 32 -9.2 15.4
16:05 1013 29.91 842 24.86 5.7 42.2 35 -8.7 16.3
16:10 1013 29.91 842 24.86 5.3 41.6 35 -8.8 16.1
16:15 1013 29.91 842 24.86 5.4 41.7 35 -8.8 16.2
16:20 1013 29.91 842 24.86 5.3 41.5 36 -8.8 16.2
16:25 1013 29.91 842 24.86 5.4 41.6 34 -9.4 15.1
16:30 1013 29.91 842 24.86 5.2 41.3 34 -9.6 14.7
16:35 1013 29.91 842 24.86 5.2 41.3 33 -9.7 14.6
16:40 1013 29.91 842 24.86 5.4 41.8 33 -9.7 14.6
16:45 1013 29.91 842 24.86 5.6 42.2 33 -9.3 15.3
16:50 1013 29.91 842 24.86 6.4 43.6 33 -8.7 16.3
16:55 1013 29.91 842 24.86 6.4 43.4 33 -8.9 16
17:00 1013 29.91 842 24.86 6.5 43.7 33 -8.5 16.6
17:05 1013 29.91 842 24.86 6.4 43.6 35 -8 17.5
17:10 1013 29.91 842 24.86 6.8 44.3 33 -8.5 16.7
17:15 1013 29.91 842 24.86 6.8 44.3 34 -8.1 17.5
17:20 1013 29.91 842 24.86 6.7 44.1 33 -8.6 16.5
17:25 1013 29.91 842 24.86 6.6 43.9 33 -8.5 16.7
17:30 1013 29.91 842 24.86 6.3 43.3 34 -8.5 16.7
17:35 1013 29.91 842 24.86 6.4 43.5 33 -8.7 16.3
17:40 1013 29.91 842 24.86 6.1 43 34 -8.6 16.6
17:45 1013 29.91 842 24.86 6.4 43.6 34 -8.3 17
17:50 1013 29.91 842 24.86 6.1 43 35 -8.4 16.8
17:55 1013 29.91 842 24.86 5.6 42.1 35 -8.6 16.5
18:00 1013 29.91 842 24.86 5.5 41.9 37 -8 17.7
18:05 1013 29.91 842 24.86 5.4 41.7 38 -7.9 17.8
18:10 1013 29.91 842 24.86 5.4 41.7 37 -8 17.5
18:15 1013 29.91 842 24.86 5.3 41.6 38 -7.8 17.9
18:20 1013 29.91 842 24.86 5.2 41.4 38 -8.1 17.4
18:25 1013 29.91 842 24.86 5.2 41.3 38 -8 17.6
18:30 1013 29.91 842 24.86 5.2 41.4 38 -7.8 17.9
18:35 1013 29.91 842 24.86 5.2 41.3 39 -7.8 18
18:40 1013 29.91 842 24.86 5.2 41.3 40 -7.4 18.7
18:45 1013 29.91 842 24.86 5.1 41.2 40 -7.6 18.4
18:50 1013 29.91 842 24.86 5 40.9 40 -7.6 18.3
18:55 1013 29.91 842 24.86 4.8 40.6 40 -7.7 18.2
19:00 1013 29.91 842 24.86 4.7 40.5 41 -7.3 18.8
19:05 1013 29.91 843 24.89 4.8 40.6 40 -7.6 18.3
19:10 1013 29.91 843 24.89 4.8 40.7 41 -7.4 18.6
19:15 1013 29.91 843 24.89 4.8 40.7 41 -7.3 18.8
19:20 1013 29.91 843 24.89 4.7 40.4 41 -7.4 18.8
19:25 1014 29.94 843 24.89 4.6 40.3 42 -7.2 19.1
19:30 1014 29.94 843 24.89 4.5 40.1 43 -7.1 19.2
19:35 1014 29.94 843 24.89 4.4 40 43 -7.2 19.1
19:40 1014 29.94 843 24.89 4.3 39.8 44 -7 19.4
19:45 1014 29.94 843 24.89 4.2 39.5 44 -6.9 19.6
19:50 1014 29.94 843 24.89 4.1 39.5 43 -7.4 18.7
19:55 1014 29.94 843 24.89 4.2 39.5 42 -7.5 18.6
20:00 1014 29.94 843 24.89 4.2 39.5 43 -7.3 18.9
20:05 1014 29.94 843 24.89 4 39.3 45 -6.8 19.8
20:10 1014 29.94 843 24.89 3.8 38.9 46 -6.8 19.8
20:15 1014 29.94 844 24.92 3.7 38.6 47 -6.5 20.3
20:20 1014 29.94 844 24.92 3.7 38.7 48 -6.3 20.7
20:25 1014 29.94 844 24.92 3.6 38.4 50 -5.9 21.4
20:30 1015 29.97 844 24.92 3.5 38.3 49 -6.2 20.8
20:35 1015 29.97 844 24.92 3.6 38.5 48 -6.4 20.4
20:40 1015 29.97 844 24.92 3.7 38.6 48 -6.3 20.6
20:45 1015 29.97 844 24.92 3.6 38.5 49 -6.2 20.9
20:50 1015 29.97 844 24.92 3.6 38.5 49 -6.1 21.1
20:55 1015 29.97 844 24.92 3.6 38.5 50 -5.9 21.3
21:00 1015 29.97 844 24.92 3.5 38.3 50 -5.9 21.4
21:05 1015 29.97 844 24.92 3.5 38.3 52 -5.6 22
21:10 1015 29.97 844 24.92 3.4 38.1 51 -5.8 21.5
21:15 1015 29.97 844 24.92 3.4 38 52 -5.7 21.7
21:20 1015 29.97 844 24.92 3.2 37.7 54 -5.2 22.6
21:25 1015 29.97 845 24.95 2.9 37.3 56 -5 23
21:30 1015 29.97 845 24.95 2.8 37 57 -4.9 23.3
21:35 1016 30 845 24.95 2.8 37 55 -5.3 22.4
21:40 1016 30 845 24.95 2.7 36.8 58 -4.7 23.6
21:45 1016 30 845 24.95 2.5 36.5 60 -4.4 24.1
21:50 1016 30 845 24.95 2.4 36.3 57 -5.3 22.4
21:55 1016 30 845 24.95 2.6 36.7 56 -5.2 22.7
22:00 1016 30 845 24.95 2.7 36.9 54 -5.6 22
22:05 1016 30 845 24.95 2.8 37 53 -5.7 21.7
22:10 1016 30 845 24.95 2.8 37 53 -5.8 21.6
22:15 1016 30 845 24.95 2.7 36.9 53 -5.9 21.3
22:20 1016 30 845 24.95 2.7 36.9 52 -6.1 21
22:25 1016 30 845 24.95 2.6 36.7 52 -6.3 20.7
22:30 1016 30 845 24.95 2.6 36.6 52 -6.3 20.7
22:35 1016 30 845 24.95 2.5 36.5 52 -6.3 20.7
22:40 1016 30 846 24.98 2.5 36.5 53 -6.2 20.9
22:45 1016 30 846 24.98 2.4 36.4 53 -6.1 20.9
22:50 1016 30 845 24.95 2.3 36.2 54 -6.2 20.9
22:55 1016 30 846 24.98 2.2 36 54 -6.1 21
23:00 1016 30 846 24.98 2.2 36 54 -6.1 21
23:05 1016 30 846 24.98 1.9 35.4 56 -5.9 21.3
23:10 1016 30 846 24.98 1.5 34.7 57 -6.1 21
23:15 1016 30 846 24.98 1.6 34.9 57 -6.1 21.1
23:20 1016 30 846 24.98 1.7 35.1 55 -6.3 20.7
23:25 1016 30 846 24.98 1.7 35 56 -6.3 20.7
23:30 1016 30 846 24.98 1.6 34.8 55 -6.6 20.1
23:35 1016 30 846 24.98 1.8 35.3 53 -6.7 20
23:40 1016 30 846 24.98 1.9 35.5 52 -6.9 19.6
23:45 1016 30 846 24.98 1.9 35.4 52 -7 19.4
23:50 1016 30 846 24.98 1.6 34.8 53 -7 19.4
23:55 1016 30 846 24.98 1.5 34.6 53 -7 19.4
24:00 1016 30 846 24.98 1.6 34.8 52 -7.2 19